createdAt,value
2023-02-09T00:03:09.045Z,12.10
2023-02-09T00:06:02.897Z,12.13
2023-02-09T00:08:54.325Z,14.25
2023-02-09T00:14:25.996Z,12.53
2023-02-09T00:20:01.539Z,12.85
2023-02-09T00:22:52.858Z,12.80
2023-02-09T00:25:44.200Z,13.08
2023-02-09T00:28:36.203Z,12.82
2023-02-09T00:31:27.901Z,12.45
2023-02-09T00:34:19.196Z,12.65
2023-02-09T00:37:13.700Z,13.58
2023-02-09T00:40:06.724Z,13.05
2023-02-09T00:43:01.599Z,13.00
2023-02-09T00:48:34.084Z,12.58
2023-02-09T00:54:05.757Z,13.32
2023-02-09T00:56:58.822Z,11.57
2023-02-09T00:59:51.158Z,13.13
2023-02-09T01:02:42.722Z,12.13
2023-02-09T01:08:16.921Z,12.73
2023-02-09T01:11:14.088Z,11.80
2023-02-09T01:14:06.000Z,12.73
2023-02-09T01:19:38.453Z,13.83
2023-02-09T01:25:12.033Z,14.18
2023-02-09T01:28:03.641Z,14.18
2023-02-09T01:33:34.461Z,13.10
2023-02-09T01:39:06.168Z,12.88
2023-02-09T01:41:59.227Z,12.58
2023-02-09T01:47:48.749Z,16.12
2023-02-09T01:50:43.491Z,13.95
2023-02-09T01:53:35.775Z,13.28
2023-02-09T01:56:31.116Z,14.00
2023-02-09T01:59:23.036Z,12.55
2023-02-09T02:02:14.941Z,13.03
2023-02-09T02:05:09.461Z,11.88
2023-02-09T02:08:04.781Z,12.28
2023-02-09T02:10:57.148Z,13.22
2023-02-09T02:16:36.121Z,12.85
2023-02-09T02:19:46.575Z,13.72
2023-02-09T02:29:46.636Z,12.90
2023-02-09T02:32:53.519Z,12.60
2023-02-09T02:35:48.151Z,13.38
2023-02-09T02:38:42.756Z,14.30
2023-02-09T02:41:39.223Z,13.45
2023-02-09T02:44:31.926Z,13.80
2023-02-09T02:47:25.094Z,13.48
2023-02-09T02:50:22.831Z,12.78
2023-02-09T02:53:16.805Z,13.65
2023-02-09T02:56:11.845Z,13.90
2023-02-09T02:59:06.624Z,14.15
2023-02-09T03:02:00.998Z,14.15
2023-02-09T03:04:55.867Z,13.95
2023-02-09T03:10:32.892Z,13.80
2023-02-09T03:13:38.384Z,13.78
2023-02-09T03:19:26.367Z,13.58
2023-02-09T03:25:04.190Z,14.47
2023-02-09T03:30:40.888Z,13.78
2023-02-09T03:38:54.898Z,13.95
2023-02-09T03:44:27.862Z,14.30
2023-02-09T03:47:19.558Z,14.10
2023-02-09T03:50:11.889Z,15.55
2023-02-09T03:53:05.831Z,14.98
2023-02-09T03:55:57.320Z,14.53
2023-02-09T03:58:48.998Z,13.03
2023-02-09T04:01:40.973Z,12.30
2023-02-09T04:04:32.462Z,12.25
2023-02-09T04:07:23.984Z,12.28
2023-02-09T04:10:15.346Z,12.45
2023-02-09T04:13:07.222Z,12.37
2023-02-09T04:15:58.460Z,13.95
2023-02-09T04:18:49.936Z,13.22
2023-02-09T04:21:41.755Z,13.93
2023-02-09T04:24:33.292Z,14.15
2023-02-09T04:27:24.857Z,13.90
2023-02-09T04:32:56.717Z,15.68
2023-02-09T04:38:29.950Z,14.43
2023-02-09T04:43:59.420Z,14.25
2023-02-09T04:46:50.813Z,13.83
2023-02-09T04:52:39.950Z,13.60
2023-02-09T04:58:30.412Z,13.70
2023-02-09T05:04:01.064Z,12.58
2023-02-09T05:06:54.533Z,12.63
2023-02-09T05:09:45.935Z,12.93
2023-02-09T05:12:37.286Z,12.82
2023-02-09T05:18:08.005Z,12.75
2023-02-09T05:23:40.506Z,14.05
2023-02-09T05:26:31.890Z,13.48
2023-02-09T05:29:23.258Z,13.90
2023-02-09T05:32:14.967Z,13.58
2023-02-09T05:35:08.416Z,13.98
2023-02-09T05:37:59.840Z,14.87
2023-02-09T05:40:51.557Z,15.55
2023-02-09T05:43:48.316Z,16.10
2023-02-09T05:46:36.964Z,15.75
2023-02-09T05:49:28.415Z,14.93
2023-02-09T05:52:21.661Z,15.95
2023-02-09T05:55:13.571Z,16.40
2023-02-09T05:58:06.325Z,16.75
2023-02-09T06:03:39.188Z,16.57
2023-02-09T06:06:31.073Z,16.00
2023-02-09T06:09:22.990Z,16.15
2023-02-09T06:14:56.613Z,16.10
2023-02-09T06:23:15.218Z,15.43
2023-02-09T06:26:10.225Z,16.07
2023-02-09T06:29:01.603Z,15.68
2023-02-09T06:31:53.161Z,15.80
2023-02-09T06:34:44.659Z,16.12
2023-02-09T06:43:02.600Z,16.75
2023-02-09T06:48:42.411Z,15.90
2023-02-09T06:54:21.346Z,15.45
2023-02-09T06:57:13.139Z,16.23
2023-02-09T07:02:49.210Z,15.95
2023-02-09T07:08:27.878Z,14.40
2023-02-09T07:11:23.841Z,15.48
2023-02-09T07:14:15.474Z,14.68
2023-02-09T07:19:48.554Z,15.25
2023-02-09T07:22:41.801Z,15.70
2023-02-09T07:28:21.376Z,15.90
2023-02-09T07:31:15.688Z,14.85
2023-02-09T07:36:51.963Z,20.88
2023-02-09T07:39:43.640Z,17.07
2023-02-09T07:42:37.938Z,16.12
2023-02-09T07:48:23.432Z,16.30
2023-02-09T07:53:58.388Z,15.75
2023-02-09T07:56:50.442Z,16.50
2023-02-09T07:59:46.691Z,15.20
2023-02-09T08:05:23.288Z,15.88
2023-02-09T08:25:00.727Z,15.20
2023-02-09T08:27:57.458Z,16.25
2023-02-09T08:33:34.001Z,14.47
2023-02-09T08:36:27.831Z,14.50
2023-02-09T08:42:30.523Z,14.33
2023-02-09T08:45:33.328Z,13.38
2023-02-09T08:48:24.972Z,11.88
2023-02-09T08:51:20.787Z,12.93
2023-02-09T08:54:12.339Z,13.08
2023-02-09T08:59:51.282Z,12.58
2023-02-09T09:02:43.160Z,12.18
2023-02-09T09:08:24.233Z,12.90
2023-02-09T09:11:16.104Z,13.48
2023-02-09T09:14:12.708Z,14.23
2023-02-09T09:19:55.621Z,14.65
2023-02-09T09:36:54.912Z,15.28
2023-02-09T09:39:46.506Z,16.07
2023-02-09T09:45:50.295Z,16.00
2023-02-09T09:48:45.522Z,15.15
2023-02-09T09:54:35.261Z,15.18
2023-02-09T09:57:29.146Z,13.50
2023-02-09T10:00:33.174Z,14.78
2023-02-09T10:03:26.134Z,13.40
2023-02-09T10:06:20.739Z,13.70
2023-02-09T10:09:23.048Z,12.58
2023-02-09T10:12:45.801Z,12.70
2023-02-09T10:15:50.651Z,11.00
2023-02-09T10:18:43.529Z,10.75
2023-02-09T10:21:37.352Z,10.50
2023-02-09T10:24:30.893Z,10.68
2023-02-09T10:30:25.838Z,9.33
2023-02-09T10:39:08.167Z,10.58
2023-02-09T10:45:16.583Z,9.58
2023-02-09T10:54:04.294Z,8.85
2023-02-09T10:57:00.390Z,9.98
2023-02-09T11:00:15.000Z,9.38
2023-02-09T11:03:08.286Z,9.55
2023-02-09T11:23:48.897Z,9.33
2023-02-09T11:26:48.279Z,10.50
2023-02-09T11:29:48.136Z,9.65
2023-02-09T11:32:47.986Z,11.22
2023-02-09T11:38:29.512Z,10.48
2023-02-09T11:44:06.376Z,11.30
2023-02-09T11:47:03.558Z,10.25
2023-02-09T11:49:58.586Z,10.85
2023-02-09T11:52:54.307Z,10.65
2023-02-09T11:58:40.132Z,11.15
2023-02-09T12:04:20.525Z,10.95
2023-02-09T12:07:16.893Z,10.80
2023-02-09T12:10:20.294Z,10.30
2023-02-09T12:13:15.741Z,10.43
2023-02-09T12:18:58.175Z,9.53
2023-02-09T12:24:59.233Z,9.75
2023-02-09T12:31:09.412Z,9.73
2023-02-09T12:37:31.287Z,9.35
2023-02-09T12:43:29.024Z,9.23
2023-02-09T12:49:34.900Z,9.25
2023-02-09T12:52:27.066Z,9.28
2023-02-09T12:58:04.168Z,7.08
2023-02-09T13:00:58.115Z,8.00
2023-02-09T13:06:39.307Z,7.12
2023-02-09T13:09:33.430Z,7.28
2023-02-09T13:15:16.997Z,8.03
2023-02-09T13:18:23.054Z,6.95
2023-02-09T13:21:22.268Z,8.00
2023-02-09T13:24:22.644Z,7.37
2023-02-09T13:27:22.321Z,7.33
2023-02-09T13:30:17.698Z,6.92
2023-02-09T13:33:15.217Z,6.95
2023-02-09T13:39:20.172Z,7.67
2023-02-09T13:42:20.982Z,7.03
2023-02-09T13:45:20.984Z,7.37
2023-02-09T13:48:24.497Z,7.30
2023-02-09T13:54:09.223Z,7.05
2023-02-09T13:57:04.324Z,7.08
2023-02-09T13:59:56.297Z,7.58
2023-02-09T14:05:34.112Z,7.60
2023-02-09T14:08:27.216Z,7.92
2023-02-09T14:11:42.016Z,7.12
2023-02-09T14:14:27.348Z,6.75
2023-02-09T14:17:26.512Z,6.40
2023-02-09T14:20:25.310Z,6.85
2023-02-09T14:26:05.946Z,7.05
2023-02-09T14:29:12.235Z,7.22
2023-02-09T14:32:07.877Z,6.70
2023-02-09T14:35:10.476Z,7.55
2023-02-09T14:38:05.011Z,8.35
2023-02-09T14:40:59.034Z,7.37
2023-02-09T14:44:01.876Z,7.00
2023-02-09T14:47:01.125Z,6.83
2023-02-09T14:49:52.469Z,6.78
2023-02-09T14:52:47.061Z,6.03
2023-02-09T14:55:40.626Z,7.22
2023-02-09T14:58:42.219Z,7.85
2023-02-09T15:01:35.318Z,6.40
2023-02-09T15:04:29.488Z,5.90
2023-02-09T15:07:24.160Z,5.53
2023-02-09T15:13:44.989Z,4.37
2023-02-09T15:16:36.650Z,6.20
2023-02-09T15:19:28.316Z,6.78
2023-02-09T15:22:20.424Z,3.70
2023-02-09T15:25:14.710Z,3.65
2023-02-09T15:28:28.141Z,4.25
2023-02-09T15:31:16.414Z,4.03
2023-02-09T15:34:08.611Z,7.03
2023-02-09T15:39:46.796Z,3.60
2023-02-09T15:43:06.176Z,4.08
2023-02-09T15:46:18.395Z,3.77
2023-02-09T15:49:10.075Z,3.40
2023-02-09T15:52:07.787Z,3.85
2023-02-09T15:55:06.843Z,3.15
2023-02-09T15:57:59.102Z,3.77
2023-02-09T16:00:52.404Z,3.22
2023-02-09T16:03:44.125Z,2.35
2023-02-09T16:06:36.471Z,3.50
2023-02-09T16:09:34.449Z,3.70
2023-02-09T16:12:25.849Z,3.62
2023-02-09T16:15:27.705Z,3.10
2023-02-09T16:18:19.200Z,3.55
2023-02-09T16:21:13.997Z,3.45
2023-02-09T16:24:19.108Z,2.35
2023-02-09T16:27:25.005Z,2.80
2023-02-09T16:30:26.211Z,3.77
2023-02-09T16:33:26.332Z,3.35
2023-02-09T16:36:28.382Z,3.58
2023-02-09T16:39:23.803Z,3.10
2023-02-09T16:42:19.021Z,2.85
2023-02-09T16:45:14.487Z,3.58
2023-02-09T16:48:08.320Z,3.47
2023-02-09T16:51:00.146Z,3.60
2023-02-09T16:53:53.795Z,3.58
2023-02-09T16:56:54.066Z,4.85
2023-02-09T16:59:47.181Z,3.72
2023-02-09T17:02:41.928Z,4.12
2023-02-09T17:05:36.527Z,4.00
2023-02-09T17:08:32.206Z,4.15
2023-02-09T17:11:25.417Z,4.70
2023-02-09T17:14:17.106Z,4.42
2023-02-09T17:17:13.448Z,4.22
2023-02-09T17:22:49.976Z,4.70
2023-02-09T17:25:41.415Z,5.22
2023-02-09T17:28:33.376Z,4.67
2023-02-09T17:31:27.024Z,5.12
2023-02-09T17:34:18.714Z,4.30
2023-02-09T17:37:15.474Z,4.60
2023-02-09T17:40:07.963Z,4.67
2023-02-09T17:42:59.964Z,4.70
2023-02-09T17:45:52.304Z,5.00
2023-02-09T17:48:43.907Z,5.20
2023-02-09T17:51:48.590Z,5.05
2023-02-09T17:54:36.748Z,5.33
2023-02-09T17:57:28.662Z,5.97
2023-02-09T18:00:21.164Z,5.03
2023-02-09T18:03:16.756Z,4.67
2023-02-09T18:06:15.554Z,5.47
2023-02-09T18:12:03.723Z,5.35
2023-02-09T18:14:59.266Z,5.42
2023-02-09T18:17:51.868Z,5.97
2023-02-09T18:20:44.104Z,5.42
2023-02-09T18:23:35.914Z,4.67
2023-02-09T18:26:27.490Z,5.47
2023-02-09T18:29:18.935Z,5.50
2023-02-09T18:32:12.666Z,4.55
2023-02-09T18:35:04.937Z,5.12
2023-02-09T18:37:56.495Z,5.62
2023-02-09T18:40:48.179Z,5.58
2023-02-09T18:43:41.689Z,5.28
2023-02-09T18:46:34.536Z,7.95
2023-02-09T18:49:26.520Z,5.87
2023-02-09T18:52:22.167Z,6.37
2023-02-09T18:55:14.273Z,6.75
2023-02-09T18:58:09.648Z,5.60
2023-02-09T19:01:01.129Z,6.03
2023-02-09T19:03:53.786Z,5.12
2023-02-09T19:06:45.491Z,5.42
2023-02-09T19:09:38.856Z,5.33
2023-02-09T19:12:30.500Z,5.47
2023-02-09T19:15:24.952Z,6.20
2023-02-09T19:18:16.487Z,5.60
2023-02-09T19:23:49.499Z,6.20
2023-02-09T19:29:31.094Z,5.67
2023-02-09T19:32:22.983Z,5.58
2023-02-09T19:37:59.491Z,6.12
2023-02-09T19:40:56.689Z,6.08
2023-02-09T19:43:44.215Z,6.62
2023-02-09T19:46:35.618Z,7.97
2023-02-09T19:49:27.349Z,9.15
2023-02-09T19:52:20.562Z,8.78
2023-02-09T19:55:13.569Z,9.05
2023-02-09T19:58:05.380Z,8.40
2023-02-09T20:00:58.832Z,9.20
2023-02-09T20:03:53.723Z,10.30
2023-02-09T20:06:45.248Z,9.58
2023-02-09T20:09:37.859Z,13.75
2023-02-09T20:12:29.457Z,11.55
2023-02-09T20:15:36.699Z,11.08
2023-02-09T20:18:18.114Z,9.73
2023-02-09T20:21:10.848Z,8.68
2023-02-09T20:24:02.192Z,7.85
2023-02-09T20:26:54.140Z,8.43
2023-02-09T20:29:45.908Z,8.18
2023-02-09T20:32:37.764Z,8.10
2023-02-09T20:35:29.465Z,7.05
2023-02-09T20:38:21.561Z,7.97
2023-02-09T20:41:16.915Z,7.17
2023-02-09T20:44:26.229Z,6.60
2023-02-09T20:47:17.568Z,7.95
2023-02-09T20:50:09.660Z,8.20
2023-02-09T20:53:01.805Z,8.10
2023-02-09T20:55:53.294Z,9.08
2023-02-09T20:58:46.032Z,9.58
2023-02-09T21:01:40.455Z,10.23
2023-02-09T21:04:51.480Z,10.58
2023-02-09T21:07:42.804Z,9.75
2023-02-09T21:10:35.899Z,9.20
2023-02-09T21:13:29.996Z,8.80
2023-02-09T21:16:21.720Z,8.25
2023-02-09T21:19:13.208Z,9.40
2023-02-09T21:22:04.383Z,9.93
2023-02-09T21:24:57.472Z,10.88
2023-02-09T21:27:54.222Z,10.30
2023-02-09T21:30:46.966Z,8.93
2023-02-09T21:33:38.929Z,9.30
2023-02-09T21:36:30.338Z,8.93
2023-02-09T21:52:35.577Z,10.08
2023-02-09T21:58:09.777Z,9.20
2023-02-09T22:01:01.766Z,9.50
2023-02-09T22:03:55.326Z,10.03
2023-02-09T22:06:47.406Z,8.95
2023-02-09T22:09:51.490Z,8.10
2023-02-09T22:12:44.213Z,8.28
2023-02-09T22:15:35.794Z,8.63
2023-02-09T22:18:27.592Z,8.20
2023-02-09T22:21:19.333Z,8.55
2023-02-09T22:24:13.323Z,7.80
2023-02-09T22:27:05.693Z,8.58
2023-02-09T22:29:58.559Z,8.20
2023-02-09T22:32:50.034Z,8.05
2023-02-09T22:35:43.584Z,7.20
2023-02-09T22:38:35.222Z,7.35
2023-02-09T22:41:27.069Z,7.37
2023-02-09T22:44:19.370Z,7.95
2023-02-09T22:47:10.674Z,7.87
2023-02-09T22:50:04.473Z,8.18
2023-02-09T22:52:55.726Z,8.53
2023-02-09T22:55:48.637Z,7.85
2023-02-09T22:58:41.315Z,8.68
2023-02-09T23:01:33.082Z,8.85
2023-02-09T23:04:24.762Z,9.03
2023-02-09T23:07:16.465Z,8.53
2023-02-09T23:10:08.470Z,8.50
2023-02-09T23:13:01.310Z,8.38
2023-02-09T23:15:52.938Z,7.33
2023-02-09T23:18:50.148Z,7.65
2023-02-09T23:21:44.570Z,7.85
2023-02-09T23:24:35.770Z,6.95
2023-02-09T23:27:27.154Z,7.20
2023-02-09T23:30:22.228Z,7.58
2023-02-09T23:33:16.703Z,7.37
2023-02-09T23:36:12.079Z,7.70
2023-02-09T23:39:06.802Z,7.53
2023-02-09T23:41:58.019Z,7.28
2023-02-09T23:44:49.758Z,6.65
2023-02-09T23:47:41.418Z,7.58
2023-02-09T23:50:32.871Z,7.47
2023-02-09T23:53:24.192Z,8.00
2023-02-09T23:56:18.364Z,7.58
2023-02-09T23:59:12.569Z,8.10
